sensor_id;sensor_type;location;lat;lon;timestamp;pressure;altitude;pressure_sealevel;temperature;humidity
31911;BME280;18457;52.432;16.914;2023-02-10T00:00:34;101971.79;;;1.33;60.92
31911;BME280;18457;52.432;16.914;2023-02-10T00:03:26;101970.33;;;1.33;60.92
31911;BME280;18457;52.432;16.914;2023-02-10T00:05:57;101974.69;;;1.31;61.17
31911;BME280;18457;52.432;16.914;2023-02-10T00:08:30;101977.27;;;1.33;61.02
31911;BME280;18457;52.432;16.914;2023-02-10T00:11:04;101979.54;;;1.36;60.99
31911;BME280;18457;52.432;16.914;2023-02-10T00:13:38;101976.61;;;1.20;61.43
31911;BME280;18457;52.432;16.914;2023-02-10T00:16:12;101975.92;;;1.25;61.37
31911;BME280;18457;52.432;16.914;2023-02-10T00:18:44;101962.88;;;1.28;61.17
31911;BME280;18457;52.432;16.914;2023-02-10T00:21:17;101962.48;;;1.32;61.15
31911;BME280;18457;52.432;16.914;2023-02-10T00:23:49;101962.36;;;1.29;61.22
31911;BME280;18457;52.432;16.914;2023-02-10T00:26:21;101960.98;;;1.31;61.31
31911;BME280;18457;52.432;16.914;2023-02-10T00:28:53;101958.02;;;1.32;61.32
31911;BME280;18457;52.432;16.914;2023-02-10T00:31:25;101961.88;;;1.30;61.28
31911;BME280;18457;52.432;16.914;2023-02-10T00:33:57;101965.90;;;1.29;61.41
31911;BME280;18457;52.432;16.914;2023-02-10T00:36:33;101968.12;;;1.26;61.54
31911;BME280;18457;52.432;16.914;2023-02-10T00:39:15;101968.04;;;1.24;61.69
31911;BME280;18457;52.432;16.914;2023-02-10T00:41:47;101965.59;;;1.20;61.83
31911;BME280;18457;52.432;16.914;2023-02-10T00:44:19;101962.73;;;1.25;61.79
31911;BME280;18457;52.432;16.914;2023-02-10T00:46:51;101958.98;;;1.24;61.78
31911;BME280;18457;52.432;16.914;2023-02-10T00:49:24;101954.95;;;1.21;61.91
31911;BME280;18457;52.432;16.914;2023-02-10T00:51:56;101956.39;;;1.13;62.34
31911;BME280;18457;52.432;16.914;2023-02-10T00:54:29;101949.27;;;1.04;62.78
31911;BME280;18457;52.432;16.914;2023-02-10T00:57:01;101943.50;;;1.07;62.62
31911;BME280;18457;52.432;16.914;2023-02-10T00:59:33;101944.05;;;1.07;62.84
31911;BME280;18457;52.432;16.914;2023-02-10T01:02:05;101941.84;;;1.10;62.73
31911;BME280;18457;52.432;16.914;2023-02-10T01:04:38;101940.11;;;1.11;62.73
31911;BME280;18457;52.432;16.914;2023-02-10T01:07:10;101936.61;;;0.94;63.36
31911;BME280;18457;52.432;16.914;2023-02-10T01:09:43;101945.83;;;0.84;64.05
31911;BME280;18457;52.432;16.914;2023-02-10T01:12:17;101941.05;;;0.89;63.93
31911;BME280;18457;52.432;16.914;2023-02-10T01:14:49;101935.23;;;0.96;63.63
31911;BME280;18457;52.432;16.914;2023-02-10T01:17:21;101936.96;;;0.89;63.86
31911;BME280;18457;52.432;16.914;2023-02-10T01:19:53;101935.14;;;0.98;63.64
31911;BME280;18457;52.432;16.914;2023-02-10T01:22:25;101932.14;;;0.98;63.59
31911;BME280;18457;52.432;16.914;2023-02-10T01:24:57;101933.27;;;0.96;63.88
31911;BME280;18457;52.432;16.914;2023-02-10T01:27:29;101938.45;;;1.00;63.75
31911;BME280;18457;52.432;16.914;2023-02-10T01:30:01;101933.41;;;0.94;64.04
31911;BME280;18457;52.432;16.914;2023-02-10T01:32:34;101937.63;;;0.97;64.09
31911;BME280;18457;52.432;16.914;2023-02-10T01:35:07;101935.02;;;1.04;63.86
31911;BME280;18457;52.432;16.914;2023-02-10T01:37:39;101930.59;;;1.09;63.67
31911;BME280;18457;52.432;16.914;2023-02-10T01:40:11;101929.66;;;1.08;63.87
31911;BME280;18457;52.432;16.914;2023-02-10T01:42:44;101925.40;;;1.08;63.74
31911;BME280;18457;52.432;16.914;2023-02-10T01:45:16;101925.30;;;0.91;64.44
31911;BME280;18457;52.432;16.914;2023-02-10T01:47:51;101921.73;;;0.96;64.49
31911;BME280;18457;52.432;16.914;2023-02-10T01:50:26;101919.46;;;1.06;64.05
31911;BME280;18457;52.432;16.914;2023-02-10T01:52:59;101918.84;;;1.13;63.83
31911;BME280;18457;52.432;16.914;2023-02-10T01:55:30;101935.88;;;1.17;63.73
31911;BME280;18457;52.432;16.914;2023-02-10T01:58:07;101944.82;;;1.04;64.06
31911;BME280;18457;52.432;16.914;2023-02-10T02:00:41;101949.57;;;1.12;64.16
31911;BME280;18457;52.432;16.914;2023-02-10T02:03:13;101947.26;;;1.21;64.10
31911;BME280;18457;52.432;16.914;2023-02-10T02:05:45;101947.43;;;1.30;63.82
31911;BME280;18457;52.432;16.914;2023-02-10T02:08:20;101941.25;;;1.31;63.47
31911;BME280;18457;52.432;16.914;2023-02-10T02:11:03;101944.23;;;1.34;63.35
31911;BME280;18457;52.432;16.914;2023-02-10T02:13:55;101939.73;;;1.38;63.32
31911;BME280;18457;52.432;16.914;2023-02-10T02:16:38;101936.57;;;1.34;63.45
31911;BME280;18457;52.432;16.914;2023-02-10T02:19:37;101935.02;;;1.31;63.59
31911;BME280;18457;52.432;16.914;2023-02-10T02:22:33;101930.14;;;1.34;63.70
31911;BME280;18457;52.432;16.914;2023-02-10T02:25:18;101921.84;;;1.35;63.55
31911;BME280;18457;52.432;16.914;2023-02-10T02:28:12;101916.91;;;1.37;63.62
31911;BME280;18457;52.432;16.914;2023-02-10T02:33:57;101939.57;;;1.34;63.96
31911;BME280;18457;52.432;16.914;2023-02-10T02:36:32;101936.05;;;1.17;64.45
31911;BME280;18457;52.432;16.914;2023-02-10T02:39:06;101935.38;;;1.08;65.12
31911;BME280;18457;52.432;16.914;2023-02-10T02:41:38;101940.48;;;1.11;65.06
31911;BME280;18457;52.432;16.914;2023-02-10T02:44:10;101943.84;;;1.25;64.71
31911;BME280;18457;52.432;16.914;2023-02-10T02:46:48;101944.06;;;1.12;64.97
31911;BME280;18457;52.432;16.914;2023-02-10T02:49:24;101944.94;;;1.03;65.28
31911;BME280;18457;52.432;16.914;2023-02-10T02:52:02;101942.98;;;0.98;65.73
31911;BME280;18457;52.432;16.914;2023-02-10T02:54:45;101943.08;;;0.96;65.74
31911;BME280;18457;52.432;16.914;2023-02-10T02:57:23;101940.10;;;0.93;65.82
31911;BME280;18457;52.432;16.914;2023-02-10T03:00:04;101933.73;;;0.89;65.92
31911;BME280;18457;52.432;16.914;2023-02-10T03:02:38;101939.94;;;0.93;65.91
31911;BME280;18457;52.432;16.914;2023-02-10T03:05:18;101940.88;;;0.90;66.06
31911;BME280;18457;52.432;16.914;2023-02-10T03:07:51;101942.11;;;0.89;66.17
31911;BME280;18457;52.432;16.914;2023-02-10T03:10:23;101940.79;;;0.92;66.25
31911;BME280;18457;52.432;16.914;2023-02-10T03:12:55;101940.77;;;0.91;66.38
31911;BME280;18457;52.432;16.914;2023-02-10T03:15:27;101948.64;;;0.88;66.56
31911;BME280;18457;52.432;16.914;2023-02-10T03:18:01;101952.84;;;0.95;66.46
31911;BME280;18457;52.432;16.914;2023-02-10T03:20:33;101954.48;;;0.96;66.60
31911;BME280;18457;52.432;16.914;2023-02-10T03:23:05;101952.77;;;0.98;66.85
31911;BME280;18457;52.432;16.914;2023-02-10T03:25:37;101955.77;;;1.02;66.97
31911;BME280;18457;52.432;16.914;2023-02-10T03:28:08;101954.41;;;0.99;67.18
31911;BME280;18457;52.432;16.914;2023-02-10T03:30:43;101958.77;;;0.97;67.45
31911;BME280;18457;52.432;16.914;2023-02-10T03:33:18;101959.39;;;0.99;67.62
31911;BME280;18457;52.432;16.914;2023-02-10T03:35:50;101964.67;;;0.98;67.79
31911;BME280;18457;52.432;16.914;2023-02-10T03:38:25;101971.90;;;0.96;67.93
31911;BME280;18457;52.432;16.914;2023-02-10T03:40:57;101974.41;;;0.96;68.23
31911;BME280;18457;52.432;16.914;2023-02-10T03:43:29;101972.77;;;1.00;68.27
31911;BME280;18457;52.432;16.914;2023-02-10T03:46:02;101973.26;;;0.99;68.49
31911;BME280;18457;52.432;16.914;2023-02-10T03:48:35;101974.45;;;0.97;68.64
31911;BME280;18457;52.432;16.914;2023-02-10T03:51:08;101975.39;;;0.99;68.71
31911;BME280;18457;52.432;16.914;2023-02-10T03:53:40;101980.81;;;1.01;68.92
31911;BME280;18457;52.432;16.914;2023-02-10T03:56:12;101982.60;;;1.05;68.97
31911;BME280;18457;52.432;16.914;2023-02-10T03:58:43;101980.27;;;1.10;68.80
31911;BME280;18457;52.432;16.914;2023-02-10T04:01:16;101986.79;;;1.12;68.96
31911;BME280;18457;52.432;16.914;2023-02-10T04:03:49;101990.23;;;1.09;69.10
31911;BME280;18457;52.432;16.914;2023-02-10T04:06:20;101989.96;;;1.12;69.22
31911;BME280;18457;52.432;16.914;2023-02-10T04:08:52;101984.81;;;1.12;69.32
31911;BME280;18457;52.432;16.914;2023-02-10T04:11:24;101980.42;;;1.18;69.30
31911;BME280;18457;52.432;16.914;2023-02-10T04:13:56;101989.06;;;1.12;69.52
31911;BME280;18457;52.432;16.914;2023-02-10T04:16:28;101990.69;;;1.08;69.80
31911;BME280;18457;52.432;16.914;2023-02-10T04:19:00;101992.73;;;1.01;69.99
31911;BME280;18457;52.432;16.914;2023-02-10T04:21:32;101986.98;;;0.95;70.43
31911;BME280;18457;52.432;16.914;2023-02-10T04:24:04;101992.46;;;0.89;70.74
31911;BME280;18457;52.432;16.914;2023-02-10T04:26:36;101994.11;;;0.91;70.99
31911;BME280;18457;52.432;16.914;2023-02-10T04:29:08;102000.41;;;0.93;71.02
31911;BME280;18457;52.432;16.914;2023-02-10T04:31:40;102002.44;;;0.94;71.04
31911;BME280;18457;52.432;16.914;2023-02-10T04:34:11;102000.73;;;0.87;71.44
31911;BME280;18457;52.432;16.914;2023-02-10T04:36:43;101992.92;;;1.01;71.19
31911;BME280;18457;52.432;16.914;2023-02-10T04:39:16;101984.30;;;1.08;71.18
31911;BME280;18457;52.432;16.914;2023-02-10T04:41:48;101981.42;;;1.21;70.45
31911;BME280;18457;52.432;16.914;2023-02-10T04:44:20;101975.95;;;1.26;70.11
31911;BME280;18457;52.432;16.914;2023-02-10T04:46:52;101972.80;;;1.23;70.23
31911;BME280;18457;52.432;16.914;2023-02-10T04:49:25;101976.48;;;1.17;70.61
31911;BME280;18457;52.432;16.914;2023-02-10T04:51:57;101977.19;;;1.13;70.86
31911;BME280;18457;52.432;16.914;2023-02-10T04:54:29;101981.08;;;1.12;70.92
31911;BME280;18457;52.432;16.914;2023-02-10T04:57:00;101983.21;;;0.99;71.62
31911;BME280;18457;52.432;16.914;2023-02-10T04:59:33;101992.86;;;0.90;72.12
31911;BME280;18457;52.432;16.914;2023-02-10T05:02:04;101993.90;;;0.99;72.04
31911;BME280;18457;52.432;16.914;2023-02-10T05:04:36;101982.70;;;1.04;71.70
31911;BME280;18457;52.432;16.914;2023-02-10T05:07:08;101981.67;;;1.14;71.55
31911;BME280;18457;52.432;16.914;2023-02-10T05:09:40;101975.58;;;1.12;71.55
31911;BME280;18457;52.432;16.914;2023-02-10T05:12:11;101978.27;;;1.09;72.00
31911;BME280;18457;52.432;16.914;2023-02-10T05:14:43;101978.95;;;1.17;71.83
31911;BME280;18457;52.432;16.914;2023-02-10T05:17:15;101978.45;;;1.22;71.84
31911;BME280;18457;52.432;16.914;2023-02-10T05:19:47;101979.98;;;1.16;72.28
31911;BME280;18457;52.432;16.914;2023-02-10T05:22:19;101976.46;;;1.08;73.01
31911;BME280;18457;52.432;16.914;2023-02-10T05:24:52;101978.89;;;1.15;72.84
31911;BME280;18457;52.432;16.914;2023-02-10T05:27:26;101978.46;;;1.22;72.83
31911;BME280;18457;52.432;16.914;2023-02-10T05:29:58;101990.48;;;1.20;73.21
31911;BME280;18457;52.432;16.914;2023-02-10T05:32:29;101993.60;;;1.23;73.26
31911;BME280;18457;52.432;16.914;2023-02-10T05:35:01;101997.02;;;1.23;73.28
31911;BME280;18457;52.432;16.914;2023-02-10T05:37:33;102005.30;;;1.17;73.77
31911;BME280;18457;52.432;16.914;2023-02-10T05:40:07;102005.42;;;1.24;73.66
31911;BME280;18457;52.432;16.914;2023-02-10T05:42:39;102005.88;;;1.27;73.61
31911;BME280;18457;52.432;16.914;2023-02-10T05:45:11;102003.29;;;1.29;73.64
31911;BME280;18457;52.432;16.914;2023-02-10T05:47:42;101995.90;;;1.36;73.46
31911;BME280;18457;52.432;16.914;2023-02-10T05:50:15;101998.05;;;1.36;73.56
31911;BME280;18457;52.432;16.914;2023-02-10T05:52:46;102001.38;;;1.35;73.61
31911;BME280;18457;52.432;16.914;2023-02-10T05:55:18;102012.01;;;1.38;73.58
31911;BME280;18457;52.432;16.914;2023-02-10T05:57:52;102007.39;;;1.38;73.40
31911;BME280;18457;52.432;16.914;2023-02-10T06:00:24;102012.86;;;1.41;73.20
31911;BME280;18457;52.432;16.914;2023-02-10T06:02:57;102010.05;;;1.43;73.28
31911;BME280;18457;52.432;16.914;2023-02-10T06:05:29;102008.74;;;1.36;73.57
31911;BME280;18457;52.432;16.914;2023-02-10T06:08:01;102008.53;;;1.40;73.60
31911;BME280;18457;52.432;16.914;2023-02-10T06:10:33;102011.42;;;1.46;73.43
31911;BME280;18457;52.432;16.914;2023-02-10T06:13:04;102009.81;;;1.45;73.47
31911;BME280;18457;52.432;16.914;2023-02-10T06:15:36;102005.16;;;1.49;73.27
31911;BME280;18457;52.432;16.914;2023-02-10T06:18:08;102005.27;;;1.52;73.26
31911;BME280;18457;52.432;16.914;2023-02-10T06:20:40;102000.89;;;1.45;73.56
31911;BME280;18457;52.432;16.914;2023-02-10T06:23:11;102011.41;;;1.41;73.99
31911;BME280;18457;52.432;16.914;2023-02-10T06:25:44;102014.70;;;1.47;73.65
31911;BME280;18457;52.432;16.914;2023-02-10T06:28:14;102019.85;;;1.47;73.82
31911;BME280;18457;52.432;16.914;2023-02-10T06:30:47;102024.23;;;1.50;73.74
31911;BME280;18457;52.432;16.914;2023-02-10T06:33:19;102019.11;;;1.51;73.53
31911;BME280;18457;52.432;16.914;2023-02-10T06:35:50;102018.48;;;1.49;73.70
31911;BME280;18457;52.432;16.914;2023-02-10T06:38:23;102019.22;;;1.44;73.89
31911;BME280;18457;52.432;16.914;2023-02-10T06:40:54;102021.96;;;1.33;74.31
31911;BME280;18457;52.432;16.914;2023-02-10T06:43:27;102026.19;;;1.41;74.17
31911;BME280;18457;52.432;16.914;2023-02-10T06:45:59;102031.85;;;1.44;74.17
31911;BME280;18457;52.432;16.914;2023-02-10T06:48:30;102031.08;;;1.52;73.98
31911;BME280;18457;52.432;16.914;2023-02-10T06:51:03;102040.16;;;1.57;73.80
31911;BME280;18457;52.432;16.914;2023-02-10T06:53:34;102043.56;;;1.57;73.88
31911;BME280;18457;52.432;16.914;2023-02-10T06:56:09;102048.28;;;1.54;74.26
31911;BME280;18457;52.432;16.914;2023-02-10T06:58:40;102050.19;;;1.49;74.48
31911;BME280;18457;52.432;16.914;2023-02-10T07:01:13;102042.34;;;1.49;74.79
31911;BME280;18457;52.432;16.914;2023-02-10T07:03:47;102040.28;;;1.46;75.14
31911;BME280;18457;52.432;16.914;2023-02-10T07:06:19;102041.96;;;1.52;75.11
31911;BME280;18457;52.432;16.914;2023-02-10T07:08:51;102049.35;;;1.59;74.81
31911;BME280;18457;52.432;16.914;2023-02-10T07:11:23;102054.26;;;1.53;75.40
31911;BME280;18457;52.432;16.914;2023-02-10T07:13:55;102059.23;;;1.61;75.20
31911;BME280;18457;52.432;16.914;2023-02-10T07:16:27;102065.55;;;1.64;75.22
31911;BME280;18457;52.432;16.914;2023-02-10T07:19:01;102068.14;;;1.71;75.15
31911;BME280;18457;52.432;16.914;2023-02-10T07:21:33;102072.71;;;1.74;75.38
31911;BME280;18457;52.432;16.914;2023-02-10T07:24:05;102077.33;;;1.73;75.60
31911;BME280;18457;52.432;16.914;2023-02-10T07:26:38;102076.94;;;1.77;75.52
31911;BME280;18457;52.432;16.914;2023-02-10T07:29:10;102074.98;;;1.82;75.43
31911;BME280;18457;52.432;16.914;2023-02-10T07:31:42;102081.38;;;1.86;75.76
31911;BME280;18457;52.432;16.914;2023-02-10T07:34:14;102081.39;;;1.87;75.75
31911;BME280;18457;52.432;16.914;2023-02-10T07:36:45;102079.40;;;1.86;75.93
31911;BME280;18457;52.432;16.914;2023-02-10T07:39:18;102088.28;;;1.90;75.93
31911;BME280;18457;52.432;16.914;2023-02-10T07:41:50;102086.91;;;1.81;76.37
31911;BME280;18457;52.432;16.914;2023-02-10T07:44:22;102090.21;;;1.79;76.74
31911;BME280;18457;52.432;16.914;2023-02-10T07:46:54;102097.88;;;1.70;77.18
31911;BME280;18457;52.432;16.914;2023-02-10T07:49:26;102095.73;;;1.61;77.68
31911;BME280;18457;52.432;16.914;2023-02-10T07:51:59;102109.33;;;1.63;77.98
31911;BME280;18457;52.432;16.914;2023-02-10T07:54:31;102107.65;;;1.65;78.13
31911;BME280;18457;52.432;16.914;2023-02-10T07:57:03;102103.98;;;1.63;78.25
31911;BME280;18457;52.432;16.914;2023-02-10T07:59:35;102101.65;;;1.62;78.36
31911;BME280;18457;52.432;16.914;2023-02-10T08:02:08;102101.74;;;1.60;78.73
31911;BME280;18457;52.432;16.914;2023-02-10T08:04:39;102102.37;;;1.62;78.79
31911;BME280;18457;52.432;16.914;2023-02-10T08:07:11;102099.61;;;1.65;78.95
31911;BME280;18457;52.432;16.914;2023-02-10T08:09:43;102093.24;;;1.75;78.54
31911;BME280;18457;52.432;16.914;2023-02-10T08:12:14;102094.98;;;1.84;78.22
31911;BME280;18457;52.432;16.914;2023-02-10T08:14:46;102101.08;;;1.79;78.36
31911;BME280;18457;52.432;16.914;2023-02-10T08:17:18;102105.73;;;1.85;78.25
31911;BME280;18457;52.432;16.914;2023-02-10T08:19:50;102109.64;;;1.89;78.25
31911;BME280;18457;52.432;16.914;2023-02-10T08:22:22;102109.84;;;1.90;78.18
31911;BME280;18457;52.432;16.914;2023-02-10T08:24:54;102118.02;;;1.89;78.29
31911;BME280;18457;52.432;16.914;2023-02-10T08:27:26;102119.98;;;1.93;78.18
31911;BME280;18457;52.432;16.914;2023-02-10T08:29:59;102122.34;;;1.95;78.21
31911;BME280;18457;52.432;16.914;2023-02-10T08:32:31;102125.54;;;1.95;78.16
31911;BME280;18457;52.432;16.914;2023-02-10T08:35:03;102124.52;;;1.96;78.13
31911;BME280;18457;52.432;16.914;2023-02-10T08:37:35;102123.94;;;1.99;78.00
31911;BME280;18457;52.432;16.914;2023-02-10T08:40:07;102128.77;;;2.04;77.86
31911;BME280;18457;52.432;16.914;2023-02-10T08:42:39;102130.16;;;1.99;78.18
31911;BME280;18457;52.432;16.914;2023-02-10T08:45:11;102134.32;;;2.05;78.16
31911;BME280;18457;52.432;16.914;2023-02-10T08:47:43;102137.06;;;2.07;78.08
31911;BME280;18457;52.432;16.914;2023-02-10T08:50:15;102139.33;;;2.01;78.05
31911;BME280;18457;52.432;16.914;2023-02-10T08:52:47;102144.88;;;2.01;78.27
31911;BME280;18457;52.432;16.914;2023-02-10T08:55:19;102136.09;;;2.00;78.33
31911;BME280;18457;52.432;16.914;2023-02-10T08:57:51;102129.02;;;2.01;78.60
31911;BME280;18457;52.432;16.914;2023-02-10T09:00:23;102125.34;;;2.03;78.67
31911;BME280;18457;52.432;16.914;2023-02-10T09:02:54;102133.02;;;2.08;78.65
31911;BME280;18457;52.432;16.914;2023-02-10T09:05:27;102128.26;;;2.14;78.42
31911;BME280;18457;52.432;16.914;2023-02-10T09:07:59;102130.23;;;2.19;78.55
31911;BME280;18457;52.432;16.914;2023-02-10T09:10:31;102134.14;;;2.24;78.47
31911;BME280;18457;52.432;16.914;2023-02-10T09:13:02;102140.11;;;2.21;78.69
31911;BME280;18457;52.432;16.914;2023-02-10T09:15:34;102151.36;;;2.31;78.45
31911;BME280;18457;52.432;16.914;2023-02-10T09:18:08;102161.36;;;2.36;78.42
31911;BME280;18457;52.432;16.914;2023-02-10T09:20:39;102164.77;;;2.27;78.80
31911;BME280;18457;52.432;16.914;2023-02-10T09:23:11;102152.50;;;2.28;79.07
31911;BME280;18457;52.432;16.914;2023-02-10T09:25:43;102165.23;;;2.30;79.17
31911;BME280;18457;52.432;16.914;2023-02-10T09:28:15;102169.15;;;2.30;79.37
31911;BME280;18457;52.432;16.914;2023-02-10T09:30:47;102176.58;;;2.28;79.71
31911;BME280;18457;52.432;16.914;2023-02-10T09:33:19;102172.61;;;2.27;80.11
31911;BME280;18457;52.432;16.914;2023-02-10T09:35:50;102171.41;;;2.33;80.13
31911;BME280;18457;52.432;16.914;2023-02-10T09:38:22;102174.36;;;2.31;80.24
31911;BME280;18457;52.432;16.914;2023-02-10T09:41:01;102176.71;;;2.36;80.53
31911;BME280;18457;52.432;16.914;2023-02-10T09:43:52;102178.41;;;2.25;81.17
31911;BME280;18457;52.432;16.914;2023-02-10T09:46:37;102171.29;;;2.25;81.46
31911;BME280;18457;52.432;16.914;2023-02-10T09:49:22;102175.94;;;2.30;81.53
31911;BME280;18457;52.432;16.914;2023-02-10T09:52:05;102174.98;;;2.38;81.42
31911;BME280;18457;52.432;16.914;2023-02-10T09:54:41;102169.48;;;2.34;81.72
31911;BME280;18457;52.432;16.914;2023-02-10T09:57:13;102163.24;;;2.38;81.81
31911;BME280;18457;52.432;16.914;2023-02-10T09:59:47;102155.99;;;2.41;81.94
31911;BME280;18457;52.432;16.914;2023-02-10T10:02:24;102156.11;;;2.43;81.91
31911;BME280;18457;52.432;16.914;2023-02-10T10:05:02;102164.05;;;2.41;82.12
31911;BME280;18457;52.432;16.914;2023-02-10T10:07:37;102173.73;;;2.43;82.18
31911;BME280;18457;52.432;16.914;2023-02-10T10:10:17;102165.28;;;2.45;82.18
31911;BME280;18457;52.432;16.914;2023-02-10T10:12:51;102173.80;;;2.48;82.18
31911;BME280;18457;52.432;16.914;2023-02-10T10:15:26;102174.27;;;2.47;82.30
31911;BME280;18457;52.432;16.914;2023-02-10T10:18:08;102171.30;;;2.54;82.02
31911;BME280;18457;52.432;16.914;2023-02-10T10:20:52;102166.81;;;2.43;82.34
31911;BME280;18457;52.432;16.914;2023-02-10T10:23:35;102160.46;;;2.50;82.23
31911;BME280;18457;52.432;16.914;2023-02-10T10:26:34;102165.80;;;2.50;82.14
31911;BME280;18457;52.432;16.914;2023-02-10T10:29:20;102175.45;;;2.50;81.97
31911;BME280;18457;52.432;16.914;2023-02-10T10:32:00;102171.59;;;2.51;81.95
31911;BME280;18457;52.432;16.914;2023-02-10T10:34:41;102174.38;;;2.46;82.41
31911;BME280;18457;52.432;16.914;2023-02-10T10:37:17;102167.52;;;2.48;82.58
31911;BME280;18457;52.432;16.914;2023-02-10T10:39:53;102173.30;;;2.54;82.61
31911;BME280;18457;52.432;16.914;2023-02-10T10:42:28;102170.70;;;2.57;82.65
31911;BME280;18457;52.432;16.914;2023-02-10T10:45:10;102166.67;;;2.58;82.59
31911;BME280;18457;52.432;16.914;2023-02-10T10:47:45;102165.16;;;2.61;82.64
31911;BME280;18457;52.432;16.914;2023-02-10T10:50:20;102161.13;;;2.63;82.79
31911;BME280;18457;52.432;16.914;2023-02-10T10:52:55;102161.14;;;2.64;83.06
31911;BME280;18457;52.432;16.914;2023-02-10T10:55:32;102166.07;;;2.62;83.33
31911;BME280;18457;52.432;16.914;2023-02-10T10:58:19;102159.69;;;2.68;83.15
31911;BME280;18457;52.432;16.914;2023-02-10T11:00:56;102152.02;;;2.73;83.28
31911;BME280;18457;52.432;16.914;2023-02-10T11:03:28;102148.81;;;2.83;83.07
31911;BME280;18457;52.432;16.914;2023-02-10T11:06:01;102150.43;;;2.89;82.70
31911;BME280;18457;52.432;16.914;2023-02-10T11:08:38;102149.95;;;2.96;82.42
31911;BME280;18457;52.432;16.914;2023-02-10T11:11:14;102148.00;;;2.91;82.99
31911;BME280;18457;52.432;16.914;2023-02-10T11:14:14;102148.19;;;2.91;83.23
31911;BME280;18457;52.432;16.914;2023-02-10T11:16:50;102151.05;;;2.91;83.21
31911;BME280;18457;52.432;16.914;2023-02-10T11:19:25;102144.56;;;3.00;82.85
31911;BME280;18457;52.432;16.914;2023-02-10T11:22:01;102140.79;;;3.20;82.03
31911;BME280;18457;52.432;16.914;2023-02-10T11:24:34;102142.16;;;3.28;81.45
31911;BME280;18457;52.432;16.914;2023-02-10T11:27:12;102148.10;;;3.25;81.58
31911;BME280;18457;52.432;16.914;2023-02-10T11:29:49;102138.91;;;3.27;81.47
31911;BME280;18457;52.432;16.914;2023-02-10T11:32:23;102141.73;;;3.31;81.50
31911;BME280;18457;52.432;16.914;2023-02-10T11:34:57;102141.14;;;3.40;81.35
31911;BME280;18457;52.432;16.914;2023-02-10T11:37:32;102143.83;;;3.46;81.11
31911;BME280;18457;52.432;16.914;2023-02-10T11:40:18;102148.23;;;3.50;81.00
31911;BME280;18457;52.432;16.914;2023-02-10T11:42:52;102149.56;;;3.52;81.32
31911;BME280;18457;52.432;16.914;2023-02-10T11:45:27;102139.15;;;3.56;81.43
31911;BME280;18457;52.432;16.914;2023-02-10T11:48:05;102126.50;;;3.57;81.56
31911;BME280;18457;52.432;16.914;2023-02-10T11:50:40;102125.86;;;3.77;80.94
31911;BME280;18457;52.432;16.914;2023-02-10T11:53:18;102123.74;;;4.00;79.99
31911;BME280;18457;52.432;16.914;2023-02-10T11:56:01;102129.83;;;4.18;79.00
31911;BME280;18457;52.432;16.914;2023-02-10T11:58:49;102122.15;;;4.31;78.36
31911;BME280;18457;52.432;16.914;2023-02-10T12:01:43;102118.89;;;4.29;78.28
31911;BME280;18457;52.432;16.914;2023-02-10T12:07:20;102120.89;;;4.24;78.44
31911;BME280;18457;52.432;16.914;2023-02-10T12:10:02;102130.73;;;4.24;78.75
31911;BME280;18457;52.432;16.914;2023-02-10T12:12:42;102130.36;;;4.12;79.05
31911;BME280;18457;52.432;16.914;2023-02-10T12:15:27;102131.52;;;4.15;79.05
31911;BME280;18457;52.432;16.914;2023-02-10T12:18:12;102126.46;;;4.13;79.22
31911;BME280;18457;52.432;16.914;2023-02-10T12:21:00;102130.42;;;4.14;79.06
31911;BME280;18457;52.432;16.914;2023-02-10T12:23:47;102131.14;;;4.15;79.11
31911;BME280;18457;52.432;16.914;2023-02-10T12:26:26;102139.13;;;4.24;78.86
31911;BME280;18457;52.432;16.914;2023-02-10T12:29:07;102145.14;;;4.33;78.17
31911;BME280;18457;52.432;16.914;2023-02-10T12:31:57;102150.29;;;4.32;78.38
31911;BME280;18457;52.432;16.914;2023-02-10T12:35:09;102146.20;;;4.33;78.40
31911;BME280;18457;52.432;16.914;2023-02-10T12:37:54;102146.98;;;4.29;78.69
31911;BME280;18457;52.432;16.914;2023-02-10T12:40:43;102143.85;;;4.32;78.79
31911;BME280;18457;52.432;16.914;2023-02-10T12:43:34;102142.24;;;4.45;78.52
31911;BME280;18457;52.432;16.914;2023-02-10T12:50:07;102135.53;;;4.49;77.95
31911;BME280;18457;52.432;16.914;2023-02-10T12:52:53;102134.33;;;4.43;78.56
31911;BME280;18457;52.432;16.914;2023-02-10T12:55:48;102132.63;;;4.46;78.52
31911;BME280;18457;52.432;16.914;2023-02-10T12:58:38;102135.05;;;4.50;78.63
31911;BME280;18457;52.432;16.914;2023-02-10T13:01:15;102128.30;;;4.52;78.48
31911;BME280;18457;52.432;16.914;2023-02-10T13:03:50;102124.66;;;4.56;78.30
31911;BME280;18457;52.432;16.914;2023-02-10T13:06:29;102126.10;;;4.56;78.14
31911;BME280;18457;52.432;16.914;2023-02-10T13:09:08;102122.92;;;4.51;78.37
31911;BME280;18457;52.432;16.914;2023-02-10T13:11:45;102127.52;;;4.56;78.32
31911;BME280;18457;52.432;16.914;2023-02-10T13:14:26;102129.04;;;4.59;78.30
31911;BME280;18457;52.432;16.914;2023-02-10T13:16:59;102129.49;;;4.69;77.86
31911;BME280;18457;52.432;16.914;2023-02-10T13:19:39;102127.52;;;4.69;78.05
31911;BME280;18457;52.432;16.914;2023-02-10T13:22:20;102131.01;;;4.65;78.11
31911;BME280;18457;52.432;16.914;2023-02-10T13:24:59;102125.70;;;4.61;78.27
31911;BME280;18457;52.432;16.914;2023-02-10T13:27:43;102128.88;;;4.60;78.39
31911;BME280;18457;52.432;16.914;2023-02-10T13:30:40;102127.02;;;4.64;78.39
31911;BME280;18457;52.432;16.914;2023-02-10T13:33:19;102133.57;;;4.62;78.37
31911;BME280;18457;52.432;16.914;2023-02-10T13:35:54;102127.76;;;4.70;78.07
31911;BME280;18457;52.432;16.914;2023-02-10T13:38:29;102126.63;;;4.69;78.13
31911;BME280;18457;52.432;16.914;2023-02-10T13:41:04;102119.65;;;4.69;78.23